createdAt,value
2022-08-09T00:02:42.936Z,16.40
2022-08-09T00:07:54.247Z,16.43
2022-08-09T00:12:57.285Z,16.47
2022-08-09T00:18:07.745Z,16.49
2022-08-09T00:23:56.599Z,16.50
2022-08-09T00:28:37.531Z,16.47
2022-08-09T00:33:51.194Z,16.44
2022-08-09T00:38:54.709Z,16.44
2022-08-09T00:44:10.711Z,16.45
2022-08-09T00:49:20.726Z,16.48
2022-08-09T00:54:31.395Z,16.50
2022-08-09T00:59:46.588Z,16.49
2022-08-09T01:05:14.153Z,16.44
2022-08-09T01:10:45.938Z,16.38
2022-08-09T01:15:56.898Z,16.31
2022-08-09T01:21:20.954Z,16.28
2022-08-09T01:26:46.421Z,16.27
2022-08-09T01:32:31.030Z,16.27
2022-08-09T01:38:05.738Z,16.22
2022-08-09T01:42:50.209Z,16.15
2022-08-09T01:47:57.021Z,16.10
2022-08-09T01:53:01.866Z,16.11
2022-08-09T01:58:24.007Z,16.14
2022-08-09T02:03:30.474Z,16.15
2022-08-09T02:08:57.558Z,16.17
2022-08-09T02:14:07.728Z,16.16
2022-08-09T02:19:12.181Z,16.18
2022-08-09T02:24:26.305Z,16.17
2022-08-09T02:29:34.634Z,16.15
2022-08-09T02:34:41.543Z,16.13
2022-08-09T02:40:02.023Z,16.10
2022-08-09T02:45:13.869Z,16.08
2022-08-09T02:50:25.295Z,16.08
2022-08-09T02:55:39.425Z,16.05
2022-08-09T03:00:58.666Z,15.99
2022-08-09T03:06:03.596Z,15.90
2022-08-09T03:11:07.286Z,15.85
2022-08-09T03:16:14.881Z,15.85
2022-08-09T03:21:20.542Z,15.87
2022-08-09T03:26:31.858Z,15.90
2022-08-09T03:31:42.469Z,15.95
2022-08-09T03:36:58.546Z,15.97
2022-08-09T03:42:07.107Z,15.98
2022-08-09T03:47:10.051Z,15.99
2022-08-09T03:52:16.729Z,16.01
2022-08-09T03:57:21.990Z,16.03
2022-08-09T04:02:28.798Z,16.05
2022-08-09T04:07:47.107Z,16.09
2022-08-09T04:12:55.362Z,16.12
2022-08-09T04:17:58.097Z,16.17
2022-08-09T04:23:02.059Z,16.25
2022-08-09T04:28:05.410Z,16.36
2022-08-09T04:33:08.357Z,16.48
2022-08-09T04:38:11.605Z,16.61
2022-08-09T04:43:18.125Z,16.77
2022-08-09T04:48:23.784Z,16.96
2022-08-09T04:53:35.964Z,17.20
2022-08-09T04:58:39.072Z,17.41
2022-08-09T05:03:43.829Z,17.70
2022-08-09T05:08:48.024Z,17.99
2022-08-09T05:13:51.165Z,18.27
2022-08-09T05:18:59.957Z,18.45
2022-08-09T05:24:04.810Z,18.53
2022-08-09T05:29:17.267Z,18.55
2022-08-09T05:34:20.744Z,18.59
2022-08-09T05:39:28.827Z,18.63
2022-08-09T05:44:35.067Z,18.58
2022-08-09T05:50:30.399Z,18.53
2022-08-09T05:55:03.026Z,18.40
2022-08-09T06:00:13.501Z,18.34
2022-08-09T06:05:16.614Z,18.43
2022-08-09T06:10:19.517Z,18.59
2022-08-09T06:15:22.345Z,18.69
2022-08-09T06:20:25.605Z,18.79
2022-08-09T06:25:28.660Z,18.77
2022-08-09T06:30:32.004Z,18.74
2022-08-09T06:35:57.226Z,18.87
2022-08-09T06:40:58.209Z,19.13
2022-08-09T06:46:06.284Z,19.34
2022-08-09T06:51:14.902Z,19.52
2022-08-09T06:56:19.662Z,19.66
2022-08-09T07:01:24.133Z,19.70
2022-08-09T07:06:30.548Z,19.60
2022-08-09T07:11:45.494Z,19.59
2022-08-09T07:16:58.406Z,19.63
2022-08-09T07:22:02.029Z,19.74
2022-08-09T07:27:11.108Z,19.87
2022-08-09T07:32:32.838Z,19.98
2022-08-09T07:37:42.951Z,20.09
2022-08-09T07:43:16.705Z,20.19
2022-08-09T07:48:25.742Z,20.16
2022-08-09T07:53:36.447Z,20.26
2022-08-09T07:58:59.508Z,20.40
2022-08-09T08:04:03.667Z,20.60
2022-08-09T08:09:07.700Z,20.95
2022-08-09T08:14:23.960Z,21.29
2022-08-09T08:19:31.056Z,21.73
2022-08-09T08:24:40.732Z,22.24
2022-08-09T08:29:48.703Z,22.81
2022-08-09T08:34:55.439Z,23.32
2022-08-09T08:40:06.096Z,24.08
2022-08-09T08:45:13.726Z,26.99
2022-08-09T08:50:18.373Z,31.13
2022-08-09T08:55:23.538Z,34.47
2022-08-09T09:00:34.327Z,34.89
2022-08-09T09:06:00.523Z,34.73
2022-08-09T09:11:06.593Z,34.44
2022-08-09T09:16:10.178Z,36.26
2022-08-09T09:21:13.709Z,37.62
2022-08-09T09:26:18.538Z,39.69
2022-08-09T09:32:04.344Z,38.84
2022-08-09T09:36:53.356Z,37.31
2022-08-09T09:41:59.273Z,35.80
2022-08-09T09:47:08.738Z,34.68
2022-08-09T09:52:33.544Z,35.08
2022-08-09T09:58:02.278Z,37.49
2022-08-09T10:02:59.672Z,37.38
2022-08-09T10:08:27.382Z,36.65
2022-08-09T10:13:43.366Z,37.16
2022-08-09T10:18:54.227Z,38.79
2022-08-09T10:24:04.026Z,41.78
2022-08-09T10:29:38.027Z,42.19
2022-08-09T10:34:33.512Z,43.79
2022-08-09T10:39:49.285Z,43.54
2022-08-09T10:45:02.424Z,40.95
2022-08-09T10:51:01.319Z,38.35
2022-08-09T10:56:29.560Z,39.48
2022-08-09T11:03:13.092Z,42.10
2022-08-09T11:07:03.826Z,41.91
2022-08-09T11:12:13.057Z,44.61
2022-08-09T11:17:19.499Z,44.50
2022-08-09T11:22:47.364Z,43.99
2022-08-09T11:28:03.918Z,45.31
2022-08-09T11:33:17.516Z,46.10
2022-08-09T11:38:32.063Z,46.26
2022-08-09T11:43:35.841Z,46.50
2022-08-09T11:48:54.858Z,46.22
2022-08-09T11:54:28.132Z,46.03
2022-08-09T11:59:33.982Z,45.85
2022-08-09T12:04:38.198Z,45.19
2022-08-09T12:09:50.529Z,41.57
2022-08-09T12:15:04.321Z,40.47
2022-08-09T12:20:34.556Z,42.29
2022-08-09T12:25:38.362Z,42.67
2022-08-09T12:30:53.458Z,41.79
2022-08-09T12:36:05.507Z,39.39
2022-08-09T12:41:36.310Z,36.34
2022-08-09T12:46:48.882Z,33.75
2022-08-09T12:52:02.406Z,31.68
2022-08-09T12:57:06.246Z,30.21
2022-08-09T13:02:09.693Z,29.16
2022-08-09T13:07:19.425Z,28.37
2022-08-09T13:12:23.370Z,27.77
2022-08-09T13:18:02.576Z,27.33
2022-08-09T13:23:04.871Z,27.06
2022-08-09T13:28:24.350Z,26.95
2022-08-09T13:33:53.418Z,26.88
2022-08-09T13:39:00.942Z,26.78
2022-08-09T13:44:07.065Z,26.76
2022-08-09T13:49:18.343Z,26.81
2022-08-09T13:54:21.873Z,26.89
2022-08-09T13:59:41.550Z,26.94
2022-08-09T14:04:49.477Z,26.95
2022-08-09T14:10:03.203Z,26.95
2022-08-09T14:16:06.577Z,27.03
2022-08-09T14:20:30.509Z,27.19
2022-08-09T14:25:42.931Z,27.49
2022-08-09T14:30:46.308Z,27.83
2022-08-09T14:35:52.161Z,28.07
2022-08-09T14:41:02.372Z,28.42
2022-08-09T14:46:56.151Z,28.82
2022-08-09T14:51:42.789Z,29.03
2022-08-09T14:56:57.747Z,29.52
2022-08-09T15:02:01.906Z,30.59
2022-08-09T15:07:05.474Z,30.50
2022-08-09T15:12:13.086Z,30.37
2022-08-09T15:17:16.008Z,30.20
2022-08-09T15:22:18.897Z,29.71
2022-08-09T15:27:24.921Z,29.35
2022-08-09T15:32:30.553Z,29.03
2022-08-09T15:37:56.698Z,28.66
2022-08-09T15:43:00.040Z,28.03
2022-08-09T15:48:16.110Z,27.47
2022-08-09T15:54:05.275Z,27.09
2022-08-09T15:58:53.081Z,26.79
2022-08-09T16:03:55.903Z,26.58
2022-08-09T16:09:04.906Z,26.35
2022-08-09T16:14:08.454Z,26.16
2022-08-09T16:19:13.791Z,26.07
2022-08-09T16:24:30.267Z,26.04
2022-08-09T16:29:36.997Z,25.85
2022-08-09T16:34:54.352Z,25.58
2022-08-09T16:40:04.783Z,25.30
2022-08-09T16:45:09.691Z,25.09
2022-08-09T16:50:33.205Z,24.95
2022-08-09T16:55:57.905Z,24.75
2022-08-09T17:00:59.864Z,24.47
2022-08-09T17:06:29.460Z,24.25
2022-08-09T17:11:37.683Z,24.07
2022-08-09T17:16:44.629Z,23.79
2022-08-09T17:21:47.478Z,23.46
2022-08-09T17:26:53.632Z,23.13
2022-08-09T17:31:58.367Z,22.89
2022-08-09T17:37:02.309Z,22.72
2022-08-09T17:42:06.008Z,22.57
2022-08-09T17:47:10.575Z,22.34
2022-08-09T17:52:22.269Z,22.05
2022-08-09T17:58:03.968Z,21.77
2022-08-09T18:02:50.184Z,21.47
2022-08-09T18:08:01.136Z,21.22
2022-08-09T18:13:53.696Z,20.98
2022-08-09T18:18:32.895Z,20.70
2022-08-09T18:24:10.376Z,20.46
2022-08-09T18:30:40.886Z,20.20
2022-08-09T18:34:23.884Z,19.94
2022-08-09T18:39:32.125Z,19.71
2022-08-09T18:44:35.644Z,19.50
2022-08-09T18:49:43.185Z,19.32
2022-08-09T18:54:52.166Z,19.14
2022-08-09T19:00:03.053Z,18.96
2022-08-09T19:05:20.090Z,18.78
2022-08-09T19:10:37.542Z,18.58
2022-08-09T19:15:44.093Z,18.41
2022-08-09T19:20:56.976Z,18.26
2022-08-09T19:26:04.940Z,18.11
2022-08-09T19:31:08.327Z,17.99
2022-08-09T19:36:11.888Z,17.86
2022-08-09T19:41:32.656Z,17.72
2022-08-09T19:46:50.826Z,17.59
2022-08-09T19:51:57.185Z,17.50
2022-08-09T19:57:00.481Z,17.46
2022-08-09T20:02:17.148Z,17.44
2022-08-09T20:07:57.039Z,17.41
2022-08-09T20:12:51.901Z,17.38
2022-08-09T20:17:55.288Z,17.32
2022-08-09T20:22:58.217Z,17.25
2022-08-09T20:28:02.718Z,17.15
2022-08-09T20:33:06.562Z,17.04
2022-08-09T20:38:21.120Z,16.94
2022-08-09T20:43:32.324Z,16.83
2022-08-09T20:48:37.266Z,16.76
2022-08-09T20:53:40.752Z,16.70
2022-08-09T20:58:44.168Z,16.66
2022-08-09T21:05:48.209Z,16.60
2022-08-09T21:09:14.170Z,16.51
2022-08-09T21:14:19.514Z,16.38
2022-08-09T21:20:19.345Z,16.26
2022-08-09T21:25:05.305Z,16.15
2022-08-09T21:30:09.127Z,16.08
2022-08-09T21:35:13.500Z,16.04
2022-08-09T21:40:22.004Z,15.98
2022-08-09T21:45:38.799Z,15.89
2022-08-09T21:50:46.667Z,15.79
2022-08-09T21:55:54.613Z,15.70
2022-08-09T22:00:57.313Z,15.66
2022-08-09T22:06:01.092Z,15.63
2022-08-09T22:12:06.707Z,15.63
2022-08-09T22:16:26.791Z,15.61
2022-08-09T22:21:49.820Z,15.53
2022-08-09T22:26:54.142Z,15.43
2022-08-09T22:31:58.088Z,15.37
2022-08-09T22:37:01.468Z,15.34
2022-08-09T22:42:16.359Z,15.31
2022-08-09T22:48:14.264Z,15.25
2022-08-09T22:52:54.659Z,15.18
2022-08-09T22:58:00.935Z,15.11
2022-08-09T23:03:12.584Z,15.07
2022-08-09T23:08:34.806Z,15.04
2022-08-09T23:13:37.756Z,14.98
2022-08-09T23:18:41.944Z,14.90
2022-08-09T23:24:05.632Z,14.80
2022-08-09T23:29:11.566Z,14.76
2022-08-09T23:34:14.318Z,14.73
2022-08-09T23:39:17.562Z,14.69
2022-08-09T23:44:20.428Z,14.66
2022-08-09T23:49:24.702Z,14.60
2022-08-09T23:54:27.861Z,14.57
2022-08-09T23:59:51.145Z,14.50
